Terminal Aerodrome Forecast
Issued by NWS

Home | Current Version | Previous Version | Text Only | Print | Product List | Glossary On
Versions: 1 2 3 4 5 6 7 8 9 10 11 12 13 14 15 16
000
FTUS46 KSTO 230500
TAFMHR
TAF
KMHR 230531Z 2306/2406 VRB03KT 4SM BR SCT004
     FM230700 VRB03KT 1/4SM FG VV001
      TEMPO 2307/2311 1SM BR OVC004
     FM231800 34006KT 4SM BR BKN006
     FM232100 33008KT P6SM SCT010 BKN200=

USA.gov is the U.S. government's official web portal to all federal, state and local government web resources and services.